Time;durP1;ratioP1;P1;durP2;ratioP2;P2;SDS_P1;SDS_P2;PMS_P1;PMS_P2;Temp;Humidity;BMP_temperature;BMP_pressure;BME280_temperature;BME280_humidity;BME280_pressure;Samples;Min_cycle;Max_cycle;Signal;HPM_P1;HPM_P2
2021/12/26 00:01:13;;;;;;;1.10;1.10;;;-5.60;99.90;;;;;;4445880;32;20060;-64
2021/12/26 00:03:40;;;;;;;0.57;0.57;;;-5.70;99.90;;;;;;4445431;32;20073;-64
2021/12/26 00:06:11;;;;;;;1.35;1.15;;;-5.70;99.90;;;;;;4451099;32;20149;-63
2021/12/26 00:08:38;;;;;;;0.60;0.60;;;-5.80;99.90;;;;;;4433292;32;20410;-64
2021/12/26 00:11:04;;;;;;;0.52;0.52;;;-5.70;99.90;;;;;;4440039;32;20065;-65
2021/12/26 00:13:31;;;;;;;0.43;0.43;;;-5.60;99.90;;;;;;4445146;32;20552;-64
2021/12/26 00:15:57;;;;;;;1.45;1.35;;;-5.50;99.90;;;;;;4445272;32;20065;-64
2021/12/26 00:18:22;;;;;;;1.83;0.85;;;-5.60;99.90;;;;;;4444609;32;20069;-63
2021/12/26 00:20:48;;;;;;;3.60;1.87;;;-5.70;99.90;;;;;;4445553;32;20060;-64
2021/12/26 00:23:15;;;;;;;1.33;1.10;;;-5.70;99.90;;;;;;4445088;32;20073;-64
2021/12/26 00:25:41;;;;;;;1.15;1.08;;;-5.60;99.90;;;;;;4444298;32;20061;-65
2021/12/26 00:28:06;;;;;;;0.57;0.57;;;-5.60;99.90;;;;;;4445526;32;20073;-65
2021/12/26 00:30:32;;;;;;;0.80;0.80;;;-5.60;99.90;;;;;;4443815;32;20464;-65
2021/12/26 00:32:58;;;;;;;0.57;0.57;;;-5.60;99.90;;;;;;4444995;32;20061;-65
2021/12/26 00:35:24;;;;;;;1.33;1.23;;;-5.60;99.90;;;;;;4446059;32;20085;-64
2021/12/26 00:37:50;;;;;;;2.08;1.87;;;-5.60;99.90;;;;;;4449763;32;20069;-64
2021/12/26 00:40:19;;;;;;;0.70;0.70;;;-5.70;99.90;;;;;;4441584;32;20068;-64
2021/12/26 00:42:45;;;;;;;0.65;0.65;;;-5.70;99.90;;;;;;4444338;32;20473;-63
2021/12/26 00:45:11;;;;;;;1.20;1.20;;;-5.70;99.90;;;;;;4444643;32;20077;-64
2021/12/26 00:47:37;;;;;;;6.90;1.62;;;-5.80;99.90;;;;;;4444554;32;20112;-64
2021/12/26 00:50:08;;;;;;;1.00;1.00;;;-5.90;99.90;;;;;;4444388;32;20144;-64
2021/12/26 00:52:33;;;;;;;1.15;1.08;;;-5.90;99.90;;;;;;4442167;32;20082;-64
2021/12/26 00:54:59;;;;;;;0.65;0.65;;;-5.80;99.90;;;;;;4444980;32;20069;-64
2021/12/26 00:57:25;;;;;;;1.20;1.05;;;-5.80;99.90;;;;;;4445600;32;20081;-64
2021/12/26 00:59:50;;;;;;;1.10;1.10;;;-5.90;99.90;;;;;;4444126;32;20093;-63
2021/12/26 01:02:16;;;;;;;6.45;3.22;;;-6.00;99.90;;;;;;4443700;32;20073;-64
2021/12/26 01:04:41;;;;;;;6.20;3.33;;;-5.90;99.90;;;;;;4444602;32;20069;-64
2021/12/26 01:07:16;;;;;;;0.65;0.65;;;-5.80;99.90;;;;;;4450672;32;20411;-63
2021/12/26 01:09:46;;;;;;;1.40;1.30;;;-5.80;99.90;;;;;;4440901;32;20131;-65
2021/12/26 01:12:14;;;;;;;0.50;0.50;;;-5.80;99.90;;;;;;4433487;32;20077;-64
2021/12/26 01:14:47;;;;;;;0.60;0.60;;;-5.90;99.90;;;;;;4429541;32;20162;-64
2021/12/26 01:17:17;;;;;;;0.93;0.93;;;-6.00;99.90;;;;;;4444010;32;20165;-64
2021/12/26 01:19:47;;;;;;;0.82;0.82;;;-6.10;99.90;;;;;;4443094;32;20296;-65
2021/12/26 01:22:13;;;;;;;0.90;0.90;;;-6.10;99.90;;;;;;4444748;32;20590;-64
2021/12/26 01:24:39;;;;;;;0.60;0.60;;;-6.10;99.90;;;;;;4444280;32;20054;-64
2021/12/26 01:27:05;;;;;;;1.55;1.45;;;-6.00;99.90;;;;;;4443798;32;20120;-64
2021/12/26 01:29:33;;;;;;;0.60;0.60;;;-6.00;99.90;;;;;;4443382;32;20518;-64
2021/12/26 01:31:59;;;;;;;0.75;0.75;;;-6.10;99.90;;;;;;4442981;32;20069;-64
2021/12/26 01:34:25;;;;;;;23.65;2.15;;;-5.90;99.90;;;;;;4444234;32;20087;-66
2021/12/26 01:36:50;;;;;;;0.47;0.47;;;-5.90;99.90;;;;;;4444150;32;20105;-65
2021/12/26 01:39:16;;;;;;;0.85;0.85;;;-5.90;99.90;;;;;;4443576;32;20120;-65
2021/12/26 01:41:43;;;;;;;1.42;0.90;;;-6.00;99.90;;;;;;4443725;32;20433;-65
2021/12/26 01:44:12;;;;;;;1.05;1.05;;;-6.10;99.90;;;;;;4443323;32;20439;-65
2021/12/26 01:46:39;;;;;;;1.42;1.35;;;-6.10;99.90;;;;;;4435037;32;20128;-64
2021/12/26 01:49:09;;;;;;;0.40;0.40;;;-6.10;99.90;;;;;;4442129;32;20584;-64
2021/12/26 01:51:36;;;;;;;0.93;0.93;;;-6.10;99.90;;;;;;4444876;32;20064;-64
2021/12/26 01:54:06;;;;;;;0.82;0.82;;;-6.10;99.90;;;;;;4443785;32;20290;-64
2021/12/26 01:56:32;;;;;;;;;;;-6.10;99.90;;;;;;4444073;32;20069;-64
2021/12/26 01:58:57;;;;;;;1.15;1.15;;;-6.10;99.90;;;;;;4442217;32;20287;-64
2021/12/26 02:01:23;;;;;;;0.68;0.68;;;-6.10;99.90;;;;;;4442934;32;20396;-64
2021/12/26 02:03:49;;;;;;;2.33;2.12;;;-6.00;99.90;;;;;;4445272;32;20057;-65
2021/12/26 02:06:16;;;;;;;2.45;2.25;;;-5.90;99.90;;;;;;4448276;32;20058;-65
2021/12/26 02:08:42;;;;;;;2.25;1.92;;;-5.80;99.90;;;;;;4443271;32;20131;-64
2021/12/26 02:11:07;;;;;;;0.80;0.80;;;-5.90;99.90;;;;;;4442870;32;20127;-65
2021/12/26 02:13:37;;;;;;;0.82;0.82;;;-5.80;99.90;;;;;;4442243;32;20519;-64
2021/12/26 02:16:04;;;;;;;1.87;1.77;;;-5.80;99.90;;;;;;4438328;32;20097;-64
2021/12/26 02:18:29;;;;;;;0.95;0.95;;;-5.70;99.90;;;;;;4443064;32;20540;-64
2021/12/26 02:21:11;;;;;;;0.50;0.50;;;-5.70;99.90;;;;;;4443120;32;20089;-63
2021/12/26 02:23:45;;;;;;;0.77;0.77;;;-5.80;99.90;;;;;;4437593;32;20755;-64
2021/12/26 02:28:41;;;;;;;1.10;1.02;;;-6.10;99.90;;;;;;4439777;32;20465;-64
2021/12/26 02:31:07;;;;;;;1.08;0.98;;;-6.10;99.90;;;;;;4446309;32;20053;-64
2021/12/26 02:33:33;;;;;;;0.50;0.50;;;-6.10;99.90;;;;;;4445031;32;20061;-64
2021/12/26 02:35:59;;;;;;;1.33;1.15;;;-6.00;99.90;;;;;;4445216;32;20135;-63
2021/12/26 02:38:25;;;;;;;0.85;0.85;;;-6.00;99.90;;;;;;4444665;32;20537;-63
2021/12/26 02:40:53;;;;;;;2.28;1.30;;;-5.90;99.90;;;;;;4445806;32;20065;-64
2021/12/26 02:43:21;;;;;;;0.60;0.60;;;-5.80;99.90;;;;;;4444435;32;20100;-64
2021/12/26 02:45:47;;;;;;;1.60;1.42;;;-5.80;99.90;;;;;;4435749;32;20097;-64
2021/12/26 02:48:14;;;;;;;0.75;0.75;;;-5.80;99.90;;;;;;4445080;32;20053;-64
2021/12/26 02:50:41;;;;;;;0.50;0.50;;;-5.90;99.90;;;;;;4447435;32;20092;-63
2021/12/26 02:53:10;;;;;;;1.48;1.15;;;-6.00;99.90;;;;;;4445978;32;20081;-65
2021/12/26 02:55:35;;;;;;;0.55;0.55;;;-6.10;99.90;;;;;;4435235;32;20057;-64
2021/12/26 02:58:07;;;;;;;1.02;0.95;;;-6.10;99.90;;;;;;4437924;32;20069;-64
2021/12/26 03:00:37;;;;;;;0.47;0.47;;;-6.10;99.90;;;;;;4443518;32;20073;-64
2021/12/26 03:03:05;;;;;;;5.07;1.95;;;-6.00;99.90;;;;;;4431443;32;20131;-64
2021/12/26 03:05:35;;;;;;;0.52;0.52;;;-6.00;99.90;;;;;;4445867;32;20061;-65
2021/12/26 03:08:00;;;;;;;2.08;1.77;;;-6.10;99.90;;;;;;4446182;32;20100;-64
2021/12/26 03:10:27;;;;;;;1.40;1.30;;;-6.10;99.90;;;;;;4445477;32;20154;-63
2021/12/26 03:12:56;;;;;;;1.40;1.30;;;-6.20;99.90;;;;;;4444694;32;20085;-63
2021/12/26 03:15:23;;;;;;;0.65;0.65;;;-6.20;99.90;;;;;;4445544;32;20140;-64
2021/12/26 03:17:50;;;;;;;0.62;0.62;;;-6.30;99.90;;;;;;4445792;32;20061;-63
2021/12/26 03:20:19;;;;;;;1.70;1.60;;;-6.40;99.90;;;;;;4446823;32;20149;-64
2021/12/26 03:22:45;;;;;;;0.70;0.70;;;-6.40;99.90;;;;;;4442651;32;20057;-63
2021/12/26 03:25:13;;;;;;;0.70;0.70;;;-6.30;99.90;;;;;;4445737;32;20060;-63
2021/12/26 03:27:39;;;;;;;2.45;1.62;;;-6.30;99.90;;;;;;4445812;32;20057;-64
2021/12/26 03:30:07;;;;;;;0.70;0.70;;;-6.40;99.90;;;;;;4444908;32;20123;-65
2021/12/26 03:32:33;;;;;;;0.50;0.50;;;-6.40;99.90;;;;;;4444842;32;20112;-64
2021/12/26 03:34:59;;;;;;;1.23;1.23;;;-6.30;99.90;;;;;;4445395;32;20120;-64
2021/12/26 03:37:24;;;;;;;1.23;1.15;;;-6.30;99.90;;;;;;4444575;32;20231;-64
2021/12/26 03:39:50;;;;;;;0.70;0.70;;;-6.20;99.90;;;;;;4446192;32;20527;-64
2021/12/26 03:42:15;;;;;;;0.62;0.62;;;-6.30;99.90;;;;;;4445498;32;20061;-64
2021/12/26 03:44:41;;;;;;;1.33;1.23;;;-6.40;99.90;;;;;;4446554;32;20503;-64
2021/12/26 03:47:07;;;;;;;0.50;0.50;;;-6.30;99.90;;;;;;4444378;32;20097;-65
2021/12/26 03:49:34;;;;;;;2.28;1.50;;;-6.30;99.90;;;;;;4445078;32;20193;-65
2021/12/26 03:51:59;;;;;;;0.57;0.57;;;-6.20;99.90;;;;;;4436635;32;20183;-64
2021/12/26 03:54:24;;;;;;;0.57;0.57;;;-6.20;99.90;;;;;;4442687;32;20081;-64
2021/12/26 03:56:50;;;;;;;2.40;1.70;;;-6.20;99.90;;;;;;4444552;32;20077;-64
2021/12/26 03:59:15;;;;;;;0.93;0.93;;;-6.10;99.90;;;;;;4445501;32;20171;-63
2021/12/26 04:01:41;;;;;;;1.10;1.10;;;-6.10;99.90;;;;;;4445642;32;20404;-63
2021/12/26 04:04:07;;;;;;;0.68;0.68;;;-6.20;99.90;;;;;;4444602;32;20086;-65
2021/12/26 04:06:32;;;;;;;1.10;1.10;;;-6.30;99.90;;;;;;4444013;32;20105;-64
2021/12/26 04:08:58;;;;;;;0.50;0.50;;;-6.40;99.90;;;;;;4445438;32;20284;-65
2021/12/26 04:11:24;;;;;;;2.60;2.20;;;-6.40;99.90;;;;;;4444691;32;20073;-64
2021/12/26 04:13:50;;;;;;;2.92;1.73;;;-6.50;99.90;;;;;;4444415;32;20065;-63
2021/12/26 04:16:16;;;;;;;0.88;0.88;;;-6.50;99.90;;;;;;4445433;32;20084;-63
2021/12/26 04:18:42;;;;;;;0.70;0.70;;;-6.50;99.90;;;;;;4446295;32;20504;-63
2021/12/26 04:21:07;;;;;;;0.50;0.50;;;-6.50;99.90;;;;;;4445430;32;20057;-64
2021/12/26 04:23:33;;;;;;;0.60;0.60;;;-6.50;99.90;;;;;;4444214;32;20132;-65
2021/12/26 04:25:59;;;;;;;1.20;1.17;;;-6.50;99.90;;;;;;4444191;32;20077;-64
2021/12/26 04:28:25;;;;;;;1.92;1.83;;;-6.50;99.90;;;;;;4444608;32;20127;-63
2021/12/26 04:30:51;;;;;;;0.70;0.70;;;-6.50;99.90;;;;;;4445230;32;20415;-65
2021/12/26 04:33:17;;;;;;;1.62;1.48;;;-6.50;99.90;;;;;;4442273;32;87540;-64
2021/12/26 04:35:42;;;;;;;0.88;0.88;;;-6.30;99.90;;;;;;4443529;32;20394;-64
2021/12/26 04:38:08;;;;;;;0.70;0.70;;;-6.20;99.90;;;;;;4443322;32;20124;-64
2021/12/26 04:40:33;;;;;;;0.52;0.52;;;-6.20;99.90;;;;;;4444059;32;20066;-64
2021/12/26 04:42:59;;;;;;;0.52;0.52;;;-6.30;99.90;;;;;;4445635;32;20061;-64
2021/12/26 04:45:25;;;;;;;0.62;0.62;;;-6.30;99.90;;;;;;4445200;32;20147;-65
2021/12/26 04:47:51;;;;;;;0.40;0.40;;;-6.30;99.90;;;;;;4445088;32;20573;-64
2021/12/26 04:50:20;;;;;;;2.40;2.20;;;-6.30;99.90;;;;;;4441532;32;20121;-64
2021/12/26 04:52:46;;;;;;;0.45;0.45;;;-6.50;99.90;;;;;;4434001;32;20066;-64
2021/12/26 04:55:15;;;;;;;0.65;0.65;;;-6.60;99.90;;;;;;4443401;32;20120;-65
2021/12/26 04:57:40;;;;;;;0.60;0.60;;;-6.60;99.90;;;;;;4435726;32;20403;-65
2021/12/26 05:00:09;;;;;;;0.50;0.50;;;-6.70;99.90;;;;;;4443422;32;20125;-64
2021/12/26 05:02:36;;;;;;;22.62;3.80;;;-6.70;99.90;;;;;;4443381;32;20497;-64
2021/12/26 05:05:03;;;;;;;1.55;1.08;;;-6.60;99.90;;;;;;4444497;32;20074;-63
2021/12/26 05:07:29;;;;;;;1.95;1.67;;;-6.60;99.90;;;;;;4433342;32;20404;-64
2021/12/26 05:09:55;;;;;;;0.47;0.47;;;-6.50;99.90;;;;;;4437334;32;20074;-65
2021/12/26 05:12:22;;;;;;;1.50;1.40;;;-6.50;99.90;;;;;;4444715;32;20529;-65
2021/12/26 05:14:48;;;;;;;1.30;1.20;;;-6.50;99.90;;;;;;4445135;32;20072;-64
2021/12/26 05:17:13;;;;;;;2.12;1.52;;;-6.50;99.90;;;;;;4449036;32;20068;-63
2021/12/26 05:19:39;;;;;;;2.00;1.75;;;-6.50;99.90;;;;;;4447116;32;20081;-64
2021/12/26 05:22:04;;;;;;;0.50;0.50;;;-6.60;99.90;;;;;;4444620;32;20070;-63
2021/12/26 05:24:30;;;;;;;0.60;0.60;;;-6.60;99.90;;;;;;4444978;32;20160;-64
2021/12/26 05:26:55;;;;;;;2.70;1.65;;;-6.60;99.90;;;;;;4442976;32;20508;-63
2021/12/26 05:29:20;;;;;;;1.37;1.30;;;-6.50;99.90;;;;;;4443342;32;20073;-63
2021/12/26 05:31:46;;;;;;;0.73;0.73;;;-6.50;99.90;;;;;;4444037;32;20560;-64
2021/12/26 05:34:11;;;;;;;1.37;1.30;;;-6.50;99.90;;;;;;4445360;32;20120;-64
2021/12/26 05:36:37;;;;;;;0.50;0.50;;;-6.60;99.90;;;;;;4443598;32;20501;-64
2021/12/26 05:39:02;;;;;;;1.45;1.35;;;-6.50;99.90;;;;;;4444223;32;20062;-64
2021/12/26 05:41:28;;;;;;;1.17;1.12;;;-6.50;99.90;;;;;;4444864;32;20061;-65
2021/12/26 05:43:53;;;;;;;37.72;2.97;;;-6.40;99.90;;;;;;4443856;32;20069;-64
2021/12/26 05:46:19;;;;;;;5.75;1.83;;;-6.30;99.90;;;;;;4443398;32;20421;-64
2021/12/26 05:48:44;;;;;;;2.08;1.87;;;-6.20;99.90;;;;;;4455276;32;20077;-64
2021/12/26 05:51:10;;;;;;;0.70;0.70;;;-6.40;99.90;;;;;;4444094;32;20517;-64
2021/12/26 05:53:35;;;;;;;0.47;0.47;;;-6.40;99.90;;;;;;4444817;32;20586;-64
2021/12/26 05:56:01;;;;;;;4.87;3.10;;;-6.40;99.90;;;;;;4444096;32;20069;-64
2021/12/26 05:58:26;;;;;;;0.60;0.60;;;-6.60;99.90;;;;;;4443397;32;20089;-64
2021/12/26 06:00:52;;;;;;;1.23;1.12;;;-6.60;99.90;;;;;;4440896;32;20081;-64
2021/12/26 06:03:17;;;;;;;1.10;1.10;;;-6.60;99.90;;;;;;4430104;32;20074;-64
2021/12/26 06:05:43;;;;;;;0.55;0.55;;;-6.50;99.90;;;;;;4444166;32;20119;-64
2021/12/26 06:08:08;;;;;;;1.55;1.35;;;-6.40;99.90;;;;;;4445325;32;20098;-64
2021/12/26 06:10:34;;;;;;;0.50;0.50;;;-6.40;99.90;;;;;;4446113;32;20078;-64
2021/12/26 06:12:59;;;;;;;0.50;0.50;;;-6.30;99.90;;;;;;4446013;32;20119;-65
2021/12/26 06:15:25;;;;;;;0.55;0.55;;;-6.30;99.90;;;;;;4445770;32;20068;-64
2021/12/26 06:17:50;;;;;;;0.55;0.55;;;-6.20;99.90;;;;;;4451136;32;20160;-64
2021/12/26 06:20:16;;;;;;;0.55;0.55;;;-6.30;99.90;;;;;;4446965;32;20082;-63
2021/12/26 06:22:44;;;;;;;0.40;0.40;;;-6.20;99.90;;;;;;4447670;32;20076;-63
2021/12/26 06:25:11;;;;;;;1.27;1.23;;;-6.30;99.90;;;;;;4441518;32;20173;-64
2021/12/26 06:27:37;;;;;;;0.88;0.88;;;-6.40;99.90;;;;;;4446147;32;20054;-64
2021/12/26 06:30:05;;;;;;;0.50;0.50;;;-6.50;99.90;;;;;;4444696;32;20057;-64
2021/12/26 06:32:31;;;;;;;0.43;0.43;;;-6.50;99.90;;;;;;4431216;32;20569;-64
2021/12/26 06:34:56;;;;;;;0.50;0.50;;;-6.50;99.90;;;;;;4443696;32;20068;-63
2021/12/26 06:37:22;;;;;;;0.95;0.95;;;-6.60;99.90;;;;;;4445231;32;20505;-64
2021/12/26 06:39:47;;;;;;;1.17;0.98;;;-6.60;99.90;;;;;;4445653;32;20120;-64
2021/12/26 06:42:13;;;;;;;1.75;1.17;;;-6.60;99.90;;;;;;4447007;32;20077;-63
2021/12/26 06:44:38;;;;;;;0.98;0.98;;;-6.50;99.90;;;;;;4446892;32;20072;-64
2021/12/26 06:47:05;;;;;;;0.55;0.55;;;-6.50;99.90;;;;;;4446083;32;20077;-64
2021/12/26 06:49:31;;;;;;;0.57;0.57;;;-6.50;99.90;;;;;;4445505;32;20069;-63
2021/12/26 06:51:56;;;;;;;0.65;0.65;;;-6.40;99.90;;;;;;4446482;32;20172;-63
2021/12/26 06:54:23;;;;;;;0.70;0.70;;;-6.50;99.90;;;;;;4440637;32;20141;-63
2021/12/26 06:56:49;;;;;;;0.50;0.50;;;-6.60;99.90;;;;;;4445136;32;20089;-63
2021/12/26 06:59:14;;;;;;;0.50;0.50;;;-6.70;99.90;;;;;;4445385;32;20493;-65
2021/12/26 07:01:40;;;;;;;1.35;1.15;;;-6.80;99.90;;;;;;4445353;32;20127;-64
2021/12/26 07:04:05;;;;;;;0.95;0.95;;;-6.80;99.90;;;;;;4445617;32;20601;-64
2021/12/26 07:06:31;;;;;;;0.62;0.62;;;-6.80;99.90;;;;;;4446102;32;20069;-64
2021/12/26 07:08:56;;;;;;;2.65;1.87;;;-6.70;99.90;;;;;;4446564;32;20116;-63
2021/12/26 07:11:21;;;;;;;0.60;0.60;;;-6.80;99.90;;;;;;4446373;32;20073;-63
2021/12/26 07:13:47;;;;;;;0.50;0.50;;;-6.80;99.90;;;;;;4445074;32;20493;-64
2021/12/26 07:16:13;;;;;;;0.60;0.60;;;-6.70;99.90;;;;;;4447680;32;20068;-64
2021/12/26 07:18:38;;;;;;;0.55;0.55;;;-6.60;99.90;;;;;;4446478;32;20117;-64
2021/12/26 07:21:04;;;;;;;0.70;0.70;;;-6.50;99.90;;;;;;4439772;32;20073;-63
2021/12/26 07:23:29;;;;;;;4.28;2.40;;;-6.50;99.90;;;;;;4446434;32;20056;-64
2021/12/26 07:25:55;;;;;;;0.75;0.75;;;-6.40;99.90;;;;;;4446855;32;20065;-64
2021/12/26 07:28:20;;;;;;;0.95;0.95;;;-6.40;99.90;;;;;;4444724;32;20065;-65
2021/12/26 07:30:46;;;;;;;0.77;0.77;;;-6.40;99.90;;;;;;4444347;32;20616;-64
2021/12/26 07:33:11;;;;;;;0.80;0.80;;;-6.50;99.90;;;;;;4444681;32;20077;-63
2021/12/26 07:35:37;;;;;;;0.60;0.60;;;-6.60;99.90;;;;;;4444950;32;20123;-63
2021/12/26 07:38:02;;;;;;;0.52;0.52;;;-6.60;99.90;;;;;;4443532;32;20524;-63
2021/12/26 07:40:28;;;;;;;0.50;0.50;;;-6.60;99.90;;;;;;4443930;32;20069;-62
2021/12/26 07:42:53;;;;;;;0.70;0.70;;;-6.60;99.90;;;;;;4446211;32;20074;-64
2021/12/26 07:45:19;;;;;;;0.62;0.62;;;-6.50;99.90;;;;;;4445872;32;20541;-65
2021/12/26 07:47:45;;;;;;;0.62;0.62;;;-6.60;99.90;;;;;;4444909;32;20085;-64
2021/12/26 07:50:10;;;;;;;0.70;0.70;;;-6.60;99.90;;;;;;4445951;32;20116;-64
2021/12/26 07:52:40;;;;;;;0.60;0.60;;;-6.40;99.90;;;;;;4444491;32;20116;-65
2021/12/26 07:55:11;;;;;;;0.57;0.57;;;-6.40;99.90;;;;;;4444647;32;20128;-64
2021/12/26 07:57:37;;;;;;;0.65;0.65;;;-6.40;99.90;;;;;;4443456;32;20060;-63
2021/12/26 08:00:05;;;;;;;0.40;0.40;;;-6.40;99.90;;;;;;4443571;32;20113;-63
2021/12/26 08:02:31;;;;;;;0.50;0.50;;;-6.40;99.90;;;;;;4444373;32;20057;-63
2021/12/26 08:04:56;;;;;;;0.50;0.50;;;-6.30;99.90;;;;;;4444371;32;20127;-63
2021/12/26 08:07:22;;;;;;;1.00;0.95;;;-6.30;99.90;;;;;;4445993;32;20108;-64
2021/12/26 08:09:47;;;;;;;0.80;0.80;;;-6.30;99.90;;;;;;4445617;32;20073;-64
2021/12/26 08:12:13;;;;;;;0.50;0.50;;;-6.10;99.90;;;;;;4446278;32;20424;-64
2021/12/26 08:14:38;;;;;;;0.90;0.90;;;-6.20;99.90;;;;;;4444892;32;20509;-64
2021/12/26 08:17:04;;;;;;;0.95;0.90;;;-6.10;99.90;;;;;;4452216;32;20131;-62
2021/12/26 08:19:30;;;;;;;0.40;0.40;;;-6.10;99.90;;;;;;4444420;32;20081;-64
2021/12/26 08:21:56;;;;;;;0.90;0.90;;;-6.00;99.90;;;;;;4445430;32;20525;-64
2021/12/26 08:24:24;;;;;;;0.52;0.52;;;-5.90;99.90;;;;;;4445847;32;20064;-64
2021/12/26 08:26:51;;;;;;;3.65;2.70;;;-5.80;99.90;;;;;;4444731;32;20082;-64
2021/12/26 08:29:17;;;;;;;0.95;0.95;;;-5.80;99.90;;;;;;4444179;32;20061;-64
2021/12/26 08:31:43;;;;;;;0.52;0.52;;;-5.80;99.90;;;;;;4443860;32;20559;-64
2021/12/26 08:34:08;;;;;;;0.65;0.65;;;-5.70;99.90;;;;;;4444938;32;20069;-62
2021/12/26 08:36:34;;;;;;;0.50;0.50;;;-5.60;99.90;;;;;;4449520;32;20078;-64
2021/12/26 08:39:03;;;;;;;0.40;0.40;;;-5.50;99.90;;;;;;4444175;32;20074;-64
2021/12/26 08:41:29;;;;;;;1.90;1.77;;;-5.40;99.90;;;;;;4444302;32;20541;-64
2021/12/26 08:43:54;;;;;;;0.82;0.82;;;-5.40;99.90;;;;;;4443929;32;20077;-64
2021/12/26 08:46:22;;;;;;;0.70;0.70;;;-5.30;99.90;;;;;;4444480;32;20469;-63
2021/12/26 08:48:48;;;;;;;0.60;0.60;;;-5.30;99.90;;;;;;4443847;32;20105;-64
2021/12/26 08:51:14;;;;;;;3.90;2.50;;;-5.20;99.90;;;;;;4444343;32;20066;-64
2021/12/26 08:53:39;;;;;;;0.82;0.82;;;-5.10;99.90;;;;;;4444591;32;20081;-64
2021/12/26 08:56:05;;;;;;;1.33;1.23;;;-5.10;99.90;;;;;;4452285;32;20085;-64
2021/12/26 08:58:31;;;;;;;0.75;0.73;;;-5.00;99.90;;;;;;4441200;32;20081;-64
2021/12/26 09:00:56;;;;;;;0.50;0.50;;;-5.00;99.90;;;;;;4431445;32;20146;-64
2021/12/26 09:03:22;;;;;;;0.50;0.50;;;-4.90;99.90;;;;;;4444540;32;20064;-63
2021/12/26 09:05:48;;;;;;;0.80;0.80;;;-4.70;99.90;;;;;;4443428;32;20060;-64
2021/12/26 09:08:13;;;;;;;0.95;0.85;;;-4.60;99.90;;;;;;4445360;32;20128;-63
2021/12/26 09:10:40;;;;;;;0.98;0.98;;;-4.50;99.90;;;;;;4444130;32;20124;-63
2021/12/26 09:13:07;;;;;;;0.52;0.52;;;-4.40;99.90;;;;;;4438099;32;20104;-63
2021/12/26 09:15:34;;;;;;;3.72;1.40;;;-4.30;99.90;;;;;;4445455;32;20063;-62
2021/12/26 09:18:00;;;;;;;0.47;0.47;;;-4.30;99.90;;;;;;4444775;32;20078;-63
2021/12/26 09:20:27;;;;;;;0.80;0.80;;;-4.30;99.90;;;;;;4439177;32;20089;-64
2021/12/26 09:22:53;;;;;;;0.80;0.80;;;-4.10;99.90;;;;;;4445174;32;20064;-64
2021/12/26 09:25:19;;;;;;;0.50;0.50;;;-4.00;99.90;;;;;;4440092;32;20087;-64
2021/12/26 09:27:45;;;;;;;1.55;1.25;;;-4.00;99.90;;;;;;4440892;32;20302;-64
2021/12/26 09:30:12;;;;;;;0.50;0.50;;;-3.80;99.90;;;;;;4443578;32;20537;-64
2021/12/26 09:32:38;;;;;;;0.80;0.80;;;-3.70;99.90;;;;;;4444000;32;20364;-64
2021/12/26 09:35:04;;;;;;;1.23;1.12;;;-3.60;99.90;;;;;;4436040;32;20053;-64
2021/12/26 09:37:30;;;;;;;1.65;1.55;;;-3.60;99.90;;;;;;4438781;32;20069;-64
2021/12/26 09:39:56;;;;;;;0.60;0.60;;;-3.50;99.90;;;;;;4437194;32;20118;-64
2021/12/26 09:42:24;;;;;;;1.65;1.55;;;-3.40;99.90;;;;;;4448548;32;20498;-64
2021/12/26 09:44:50;;;;;;;0.60;0.60;;;-3.30;99.90;;;;;;4452153;32;20053;-64
2021/12/26 09:47:15;;;;;;;1.40;1.30;;;-3.10;99.90;;;;;;4450098;32;20068;-64
2021/12/26 09:49:41;;;;;;;0.50;0.50;;;-3.10;99.90;;;;;;4449804;32;20070;-64
2021/12/26 09:52:07;;;;;;;2.15;1.95;;;-3.10;99.90;;;;;;4448041;32;20085;-64
2021/12/26 09:54:33;;;;;;;0.82;0.82;;;-3.00;99.90;;;;;;4446771;32;20134;-64
2021/12/26 09:56:59;;;;;;;0.93;0.93;;;-2.90;99.90;;;;;;4448393;32;20069;-64
2021/12/26 09:59:27;;;;;;;0.60;0.60;;;-2.80;99.90;;;;;;4442325;32;20337;-64
2021/12/26 10:01:55;;;;;;;1.65;1.40;;;-2.70;99.90;;;;;;4448208;32;20093;-64
2021/12/26 10:04:31;;;;;;;0.52;0.52;;;-2.60;99.90;;;;;;4449670;32;20128;-64
2021/12/26 10:07:00;;;;;;;0.55;0.55;;;-2.50;99.90;;;;;;4447883;32;20058;-64
2021/12/26 10:09:26;;;;;;;1.33;1.23;;;-2.40;99.90;;;;;;4447929;32;20069;-65
2021/12/26 10:11:53;;;;;;;2.87;2.47;;;-2.40;99.90;;;;;;4447657;32;20064;-65
2021/12/26 10:14:22;;;;;;;5.10;1.77;;;-2.40;99.90;;;;;;4449158;32;20130;-65
2021/12/26 10:16:50;;;;;;;6.40;3.03;;;-2.20;99.90;;;;;;4448033;32;20588;-65
2021/12/26 10:19:16;;;;;;;3.35;2.53;;;-2.00;99.90;;;;;;4448631;32;20064;-65
2021/12/26 10:21:45;;;;;;;2.60;1.85;;;-2.10;99.90;;;;;;4441699;32;20065;-65
2021/12/26 10:24:14;;;;;;;2.20;0.82;;;-1.90;99.90;;;;;;4449365;32;20188;-65
2021/12/26 10:26:46;;;;;;;2.53;2.30;;;-1.80;99.90;;;;;;4433154;32;20082;-64
2021/12/26 10:29:18;;;;;;;2.28;2.08;;;-1.70;99.90;;;;;;4446674;32;20061;-65
2021/12/26 10:31:48;;;;;;;2.78;2.12;;;-1.70;99.90;;;;;;4447436;32;20084;-65
2021/12/26 10:34:19;;;;;;;3.80;2.78;;;-1.70;99.90;;;;;;4447535;32;20513;-65
2021/12/26 10:36:45;;;;;;;;;;;-1.60;99.90;;;;;;4444080;32;20150;-65
2021/12/26 10:39:14;;;;;;;1.48;1.37;;;-1.70;99.90;;;;;;4448669;32;20369;-65
2021/12/26 10:41:43;;;;;;;2.70;2.05;;;-1.60;99.90;;;;;;4448326;32;20085;-65
2021/12/26 10:44:28;;;;;;;0.90;0.90;;;-1.60;99.90;;;;;;4445924;32;20100;-65
2021/12/26 10:46:59;;;;;;;8.27;2.25;;;-1.50;99.90;;;;;;4448197;32;20064;-65
2021/12/26 10:49:30;;;;;;;0.50;0.50;;;-1.50;99.90;;;;;;4439222;32;20143;-65
2021/12/26 10:51:56;;;;;;;0.40;0.40;;;-1.50;99.90;;;;;;4446814;32;20049;-64
2021/12/26 10:54:25;;;;;;;0.73;0.60;;;-1.30;99.90;;;;;;4445153;32;20105;-64
2021/12/26 10:57:13;;;;;;;2.60;1.80;;;-1.10;99.90;;;;;;4446202;32;20516;-64
2021/12/26 10:59:41;;;;;;;0.82;0.77;;;-1.10;99.90;;;;;;4433320;32;20049;-64
2021/12/26 11:02:07;;;;;;;0.50;0.50;;;-1.10;99.90;;;;;;4444527;32;20061;-64
2021/12/26 11:04:36;;;;;;;0.77;0.77;;;-1.20;99.90;;;;;;4449107;32;20077;-64
2021/12/26 11:07:05;;;;;;;0.60;0.60;;;-1.00;99.90;;;;;;4447995;32;20095;-64
2021/12/26 11:09:31;;;;;;;1.05;1.05;;;-0.80;99.90;;;;;;4443958;32;20533;-65
2021/12/26 11:11:59;;;;;;;0.73;0.73;;;-0.60;99.90;;;;;;4439010;32;20131;-66
2021/12/26 11:14:25;;;;;;;0.50;0.50;;;-0.50;99.90;;;;;;4445446;32;20098;-65
2021/12/26 11:16:50;;;;;;;1.08;1.08;;;-0.50;99.90;;;;;;4446510;32;20077;-65
2021/12/26 11:19:16;;;;;;;0.50;0.50;;;-0.50;99.90;;;;;;4446875;32;20582;-64
2021/12/26 11:21:42;;;;;;;0.70;0.70;;;-0.40;99.90;;;;;;4445041;32;20407;-64
2021/12/26 11:24:08;;;;;;;0.50;0.50;;;-0.20;99.90;;;;;;4449225;32;20057;-63
2021/12/26 11:26:33;;;;;;;0.90;0.90;;;-0.10;99.90;;;;;;4452213;32;20628;-64
2021/12/26 11:28:59;;;;;;;0.60;0.60;;;0.00;99.90;;;;;;4444087;32;20077;-64
2021/12/26 11:31:28;;;;;;;1.70;1.60;;;0.00;99.50;;;;;;4443366;32;20098;-64
2021/12/26 11:33:59;;;;;;;0.60;0.60;;;-0.10;98.30;;;;;;4444281;32;20064;-64
2021/12/26 11:36:27;;;;;;;0.77;0.77;;;-0.10;98.30;;;;;;4444178;32;20438;-64
2021/12/26 11:38:55;;;;;;;0.50;0.50;;;-0.10;99.00;;;;;;4433754;32;20061;-64
2021/12/26 11:41:43;;;;;;;0.52;0.52;;;0.10;98.20;;;;;;4444754;32;20066;-64
2021/12/26 11:44:15;;;;;;;0.52;0.52;;;0.20;99.90;;;;;;4440012;32;20068;-64
2021/12/26 11:47:02;;;;;;;0.62;0.62;;;0.40;98.50;;;;;;4449194;32;20077;-64
2021/12/26 11:49:43;;;;;;;0.62;0.62;;;0.50;98.00;;;;;;4435266;32;20073;-64
2021/12/26 11:52:48;;;;;;;0.60;0.60;;;0.50;98.30;;;;;;4444932;32;20077;-64
2021/12/26 11:55:41;;;;;;;0.50;0.50;;;0.40;97.50;;;;;;4435491;32;20052;-64
2021/12/26 11:58:41;;;;;;;1.48;1.37;;;0.30;98.10;;;;;;4439625;32;20466;-64
2021/12/26 12:01:14;;;;;;;0.70;0.70;;;0.30;98.80;;;;;;4437951;32;20081;-64
2021/12/26 12:03:39;;;;;;;0.93;0.93;;;0.40;97.30;;;;;;4447424;32;20082;-65
2021/12/26 12:06:05;;;;;;;3.42;1.45;;;0.60;97.20;;;;;;4441330;32;20069;-65
2021/12/26 12:08:34;;;;;;;2.60;0.80;;;1.00;97.20;;;;;;4445047;32;20064;-64
2021/12/26 12:11:04;;;;;;;0.70;0.70;;;1.40;96.90;;;;;;4445166;32;20594;-64
2021/12/26 12:13:50;;;;;;;0.40;0.40;;;1.70;95.80;;;;;;4445311;32;20469;-65
2021/12/26 12:16:27;;;;;;;0.40;0.40;;;2.20;95.10;;;;;;4429933;32;20108;-64
2021/12/26 12:18:55;;;;;;;0.40;0.40;;;2.10;93.00;;;;;;4431288;32;20061;-65
2021/12/26 12:21:24;;;;;;;0.80;0.80;;;2.30;92.70;;;;;;4441344;32;20120;-64
2021/12/26 12:24:10;;;;;;;1.37;1.20;;;2.30;92.00;;;;;;4441672;32;20058;-64
2021/12/26 12:26:58;;;;;;;0.50;0.50;;;2.50;93.10;;;;;;4442670;32;20061;-65
2021/12/26 12:29:29;;;;;;;0.82;0.82;;;2.70;91.80;;;;;;4444434;32;20068;-65
2021/12/26 12:32:13;;;;;;;0.68;0.68;;;2.70;93.30;;;;;;4444623;32;20068;-63
2021/12/26 12:34:58;;;;;;;0.40;0.40;;;2.80;90.40;;;;;;4443601;32;20077;-64
2021/12/26 12:37:33;;;;;;;2.72;1.62;;;3.00;90.60;;;;;;4443893;32;20085;-63
2021/12/26 12:40:09;;;;;;;0.80;0.68;;;3.00;90.30;;;;;;4444972;32;20544;-64
2021/12/26 12:42:35;;;;;;;0.40;0.40;;;3.20;90.20;;;;;;4451247;32;20509;-65
2021/12/26 12:45:01;;;;;;;0.50;0.50;;;3.20;90.00;;;;;;4444769;32;20538;-65
2021/12/26 12:47:27;;;;;;;0.55;0.55;;;3.30;89.00;;;;;;4442959;32;20123;-64
2021/12/26 12:49:55;;;;;;;4.62;0.73;;;3.00;89.40;;;;;;4443798;32;20092;-65
2021/12/26 12:52:43;;;;;;;0.77;0.75;;;2.90;90.20;;;;;;4442721;32;20520;-64